x

Frying Pan Shoals, Nc Buoy (41013) Wave Buoy

5:50 - Fri 18th Apr 2014 All times are EDT. -4 hours from GMT.

  • Sig Wave height 7.9ft
  • Swell Direction
  • Peak Period 7s
  • Average Period 5s
  • Wind
    27mph, 34mph gusts
  • Sea Temp 64°f
  • Luft Temp 57°f
  • Sea Pressure 1024.8mb
  • Frying Pan Shoals, Nc Buoy
  • Frying Pan Shoals, Nc Buoy

More Historic Weather Station data

Upgrade to MSW Pro to gain access to the past 30 days of data for over 8000 Wavebouys and Weather Stations around the globe.

Join Pro

Comparision Forecast

View Surf forecast
   
Fr 04/18 5:50 8ft 7s 5s 27 34 mph 1024.8mb 64f 57f
4:50 8ft 9s 6s 27 31 mph 1025.3mb 64f 57f
3:50 8ft 6s 5s 25 31 mph 1025.4mb 63f 58f
2:50 8ft 9s 6s 22 29 mph 1026.4mb 64f 58f
1:50 8ft 7s 6s 25 29 mph 1026.2mb 64f 58f
12:50 8ft 6s 6s 25 31 mph 1027mb 64f 59f
Do 04/17 11:50 7.5ft 8s 6s 27 31 mph 1027.5mb 64f 59f
10:50 8ft 8s 6s 25 29 mph 1027.9mb 64f 60f
9:50 8.5ft 7s 6s 27 31 mph 1027.9mb 64f 60f
8:50 8.5ft 7s 6s 25 31 mph 1027.9mb 64f 60f
7:50 8.5ft 8s 6s 25 29 mph 1027.6mb 63f 61f
6:50 8ft 7s 5s 25 29 mph 1027mb 62f 61f
5:50 7.5ft 8s 6s 25 29 mph 1028.2mb 62f 61f
4:50 7.5ft 8s 5s 25 29 mph 1028.3mb 62f 60f
3:50 7.5ft 7s 5s 25 29 mph 1028.8mb 62f 60f
2:50 7.5ft 7s 5s 25 31 mph 1029.3mb 62f 59f
1:50 8ft 7s 6s 25 31 mph 1029.5mb 63f 59f
12:50 7ft 6s 5s 25 29 mph 1029.7mb 63f 58f
11:50 8ft 7s 5s 25 29 mph 1029.8mb 63f 58f
10:50 7.5ft 7s 5s 27 31 mph 1029.6mb 63f 57f
9:50 9ft 7s 6s 27 31 mph 1028.9mb 63f 56f
8:50 8.5ft 7s 6s 27 31 mph 1028.4mb 62f 56f
7:50 8ft 7s 5s 27 31 mph 1027.7mb 62f 55f
6:50 7.5ft 6s 5s 27 34 mph 1027mb 62f 54f
5:50 7ft 6s 5s 27 31 mph 1027.1mb 62f 54f
4:50 7ft 6s 5s 27 31 mph 1026.5mb 62f 54f
3:50 7.5ft 7s 5s 27 36 mph 1026.6mb 62f 53f
2:50 7.5ft 6s 5s 27 31 mph 1026.9mb 62f 53f
1:50 8ft 6s 5s 27 31 mph 1027.2mb 64f 53f
12:50 8ft 7s 5s 27 31 mph 1027.5mb 64f 53f
Mi 04/16 11:50 8ft 7s 5s 27 34 mph 1027.5mb 65f 53f
10:50 8.5ft 7s 6s 29 36 mph 1027.3mb 65f 53f
9:50 8.5ft 7s 6s 29 36 mph 1027.3mb 65f 52f
8:50 8ft 7s 6s 27 31 mph 1027.4mb 65f 52f
7:50 8ft 7s 5s 27 34 mph 1026.8mb 65f 52f
6:50 7.5ft 8s 5s 27 31 mph 1026.4mb 65f 53f
5:50 7ft 6s 5s 25 31 mph 1026.1mb 64f 53f
4:50 7ft 7s 5s 25 31 mph 1025.9mb 64f 51f
3:50 7ft 8s 5s 25 29 mph 1026.1mb 64f 50f
2:50 7ft 7s 5s 25 31 mph 1026.1mb 64f 49f
1:50 7.5ft 8s 5s 22 31 mph 1026.2mb 64f 48f
12:50 7.5ft 7s 5s 27 36 mph 1025.7mb 65f 47f
11:50 8.5ft 7s 5s 27 31 mph 1026mb 65f 46f
10:50 10ft 8s 6s 29 34 mph 1025.2mb 65f 46f
9:50 9.5ft 8s 6s 29 36 mph 1023.9mb 65f 46f
8:50 10ft 8s 6s 34 43 mph 1022.6mb 65f 46f
7:50 11ft 7s 6s 31 40 mph 1021.7mb 65f 47f
6:50 8.5ft 7s 6s 34 43 mph 1020.2mb 66f 48f
5:50 9ft 7s 6s 31 38 mph 1018.7mb 66f 50f
4:50 9ft 7s 6s 31 40 mph 1017.4mb 66f 51f
3:50 8.5ft 6s 6s 29 36 mph 1015.7mb 66f 52f
2:50 9ft 6s 6s 31 40 mph 1014.3mb 66f 51f
1:50 9ft 6s 5s 34 40 mph 1013.6mb 66f 52f
12:50 9ft 5s 5s 36 40 mph 1011.4mb 66f 52f
Di 04/15 11:50 7ft 8s 5s 36 45 mph 1009.5mb 66f 55f
10:50 6ft 7s 5s 34 40 mph 1007.4mb 67f 60f
9:50 6ft 8s 6s 13 18 mph 1005.2mb 67f 70f
8:50 6.5ft 8s 6s 16 25 mph 1005.4mb 67f 69f
7:50 6ft 8s 5s 20 25 mph 1005.1mb 67f 70f
6:50 6ft 8s 5s 20 25 mph 1005.2mb 67f 69f
5:50 6.5ft 8s 5s 22 25 mph 1006mb 66f 69f
4:50 6.5ft 8s 6s 20 25 mph 1006.1mb 66f 68f
3:50 6.5ft 8s 5s 18 22 mph 1007.9mb 66f 67f
2:50 7ft 8s 6s 25 36 mph 1008.1mb 66f 69f
1:50 7ft 8s 6s 16 18 mph 1008.2mb 66f 70f
12:50 7ft 8s 6s 13 18 mph 1009.2mb 67f 70f
11:50 7.5ft 8s 6s 22 27 mph 1009.6mb 67f 70f
10:50 8ft 8s 6s 18 20 mph 1009.5mb 67f 69f
9:50 8ft 8s 6s 20 22 mph 1009.6mb 67f 67f
8:50 8ft 8s 6s 22 27 mph 1009.6mb 67f 68f
7:50 8ft 8s 6s 20 25 mph 1009.1mb 66f 71f
6:50 8.5ft 8s 6s 22 25 mph 1009.3mb 66f 71f
5:50 8.5ft 8s 6s 20 25 mph 1009.4mb 66f 71f
4:50 8ft 8s 6s 22 25 mph 1009.9mb 66f 71f
3:50 8ft 8s 6s 18 22 mph 1010.4mb 66f 71f
2:50 7.5ft 8s 6s 18 22 mph 1011.1mb 66f 70f
1:50 8ft 7s 6s 18 20 mph 1011.5mb 66f 70f
12:50 8ft 7s 6s 20 22 mph 1012mb 66f 70f
Mo 04/14 11:50 7ft 8s 6s 20 25 mph 1012.7mb 66f 70f
10:50 6.5ft 8s 6s 20 25 mph 1013.2mb 67f 71f
9:50 6.5ft 7s 6s 20 22 mph 1013.8mb 67f 71f
8:50 6ft 7s 6s 16 20 mph 1014.1mb 67f 70f
7:50 6ft 8s 6s 16 18 mph 1014.1mb 67f 70f
6:50 6ft 8s 5s 16 18 mph 1014.5mb 67f 70f
5:50 6ft 6s 5s 16 18 mph 1014.5mb 67f 70f
4:50 5.5ft 6s 5s 16 20 mph 1015.2mb 67f 71f
3:50 5ft 8s 5s 11 13 mph 1016mb 67f 70f
2:50 5ft 7s 5s 11 13 mph 1017mb 67f 70f
1:50 5ft 8s 5s 9 11 mph 1017.5mb 66f 70f
12:50 6ft 6s 6s 11
mph
1018.2mb 66f 70f
11:50 5.5ft 7s 6s 11 13 mph 1018.8mb 66f 70f